images/hfc/images/print_logo.png
Drucken
[Quelle: ADDS]
METAR
EDDW 200020Z 05008KT CAVOK 17/11 Q1017 =
TAF
EDDW 192300Z 2000/2024 05007KT CAVOK =
BCMT / ECET: 02:33 / 20:29 UTC (EDDW 2018-07-20)

printlogo=no